sensor_id;sensor_type;location;lat;lon;timestamp;P1;durP1;ratioP1;P2;durP2;ratioP2
19643;SDS011;9970;-36.854;174.870;2022-07-29T00:00:31;4.30;;;4.30;;
19643;SDS011;9970;-36.854;174.870;2022-07-29T00:03:04;4.40;;;4.40;;
19643;SDS011;9970;-36.854;174.870;2022-07-29T00:05:41;4.20;;;4.20;;
19643;SDS011;9970;-36.854;174.870;2022-07-29T00:08:14;4.00;;;4.00;;
19643;SDS011;9970;-36.854;174.870;2022-07-29T00:10:47;4.00;;;4.00;;
19643;SDS011;9970;-36.854;174.870;2022-07-29T00:13:20;4.13;;;4.13;;
19643;SDS011;9970;-36.854;174.870;2022-07-29T00:15:55;4.00;;;4.00;;
19643;SDS011;9970;-36.854;174.870;2022-07-29T00:18:29;4.20;;;4.20;;
19643;SDS011;9970;-36.854;174.870;2022-07-29T00:21:02;3.80;;;3.80;;
19643;SDS011;9970;-36.854;174.870;2022-07-29T00:23:39;4.40;;;4.40;;
19643;SDS011;9970;-36.854;174.870;2022-07-29T00:26:13;4.30;;;4.30;;
19643;SDS011;9970;-36.854;174.870;2022-07-29T00:28:46;4.20;;;4.20;;
19643;SDS011;9970;-36.854;174.870;2022-07-29T00:31:20;4.40;;;4.40;;
19643;SDS011;9970;-36.854;174.870;2022-07-29T00:33:54;4.30;;;4.30;;
19643;SDS011;9970;-36.854;174.870;2022-07-29T00:36:27;4.70;;;4.70;;
19643;SDS011;9970;-36.854;174.870;2022-07-29T00:39:00;4.73;;;4.73;;
19643;SDS011;9970;-36.854;174.870;2022-07-29T00:41:34;4.37;;;4.37;;
19643;SDS011;9970;-36.854;174.870;2022-07-29T00:44:07;4.40;;;4.40;;
19643;SDS011;9970;-36.854;174.870;2022-07-29T00:46:40;4.60;;;4.60;;
19643;SDS011;9970;-36.854;174.870;2022-07-29T00:49:13;4.60;;;4.60;;
19643;SDS011;9970;-36.854;174.870;2022-07-29T00:51:48;4.40;;;4.40;;
19643;SDS011;9970;-36.854;174.870;2022-07-29T00:54:22;4.20;;;4.20;;
19643;SDS011;9970;-36.854;174.870;2022-07-29T00:56:59;4.80;;;4.80;;
19643;SDS011;9970;-36.854;174.870;2022-07-29T00:59:33;4.70;;;4.70;;
19643;SDS011;9970;-36.854;174.870;2022-07-29T01:02:06;4.80;;;4.80;;
19643;SDS011;9970;-36.854;174.870;2022-07-29T01:04:38;5.23;;;5.23;;
19643;SDS011;9970;-36.854;174.870;2022-07-29T01:07:12;4.77;;;4.77;;
19643;SDS011;9970;-36.854;174.870;2022-07-29T01:09:46;5.00;;;5.00;;
19643;SDS011;9970;-36.854;174.870;2022-07-29T01:12:21;4.90;;;4.90;;
19643;SDS011;9970;-36.854;174.870;2022-07-29T01:14:54;4.60;;;4.60;;
19643;SDS011;9970;-36.854;174.870;2022-07-29T01:17:28;4.50;;;4.50;;
19643;SDS011;9970;-36.854;174.870;2022-07-29T01:20:12;4.70;;;4.70;;
19643;SDS011;9970;-36.854;174.870;2022-07-29T01:25:48;5.00;;;5.00;;
19643;SDS011;9970;-36.854;174.870;2022-07-29T01:31:16;4.63;;;4.63;;
19643;SDS011;9970;-36.854;174.870;2022-07-29T01:33:58;4.70;;;4.70;;
19643;SDS011;9970;-36.854;174.870;2022-07-29T01:36:30;4.80;;;4.80;;
19643;SDS011;9970;-36.854;174.870;2022-07-29T01:39:10;4.80;;;4.80;;
19643;SDS011;9970;-36.854;174.870;2022-07-29T01:53:54;5.20;;;5.20;;
19643;SDS011;9970;-36.854;174.870;2022-07-29T01:56:28;5.20;;;5.20;;
19643;SDS011;9970;-36.854;174.870;2022-07-29T01:59:03;4.90;;;4.90;;
19643;SDS011;9970;-36.854;174.870;2022-07-29T02:01:39;4.70;;;4.70;;
19643;SDS011;9970;-36.854;174.870;2022-07-29T02:04:12;4.80;;;4.80;;
19643;SDS011;9970;-36.854;174.870;2022-07-29T02:06:49;4.97;;;4.97;;
19643;SDS011;9970;-36.854;174.870;2022-07-29T02:09:23;4.80;;;4.80;;
19643;SDS011;9970;-36.854;174.870;2022-07-29T02:11:57;5.30;;;5.30;;
19643;SDS011;9970;-36.854;174.870;2022-07-29T02:14:33;4.77;;;4.77;;
19643;SDS011;9970;-36.854;174.870;2022-07-29T02:17:06;4.90;;;4.90;;
19643;SDS011;9970;-36.854;174.870;2022-07-29T02:19:41;4.80;;;4.80;;
19643;SDS011;9970;-36.854;174.870;2022-07-29T02:22:16;4.50;;;4.50;;
19643;SDS011;9970;-36.854;174.870;2022-07-29T02:24:52;5.00;;;5.00;;
19643;SDS011;9970;-36.854;174.870;2022-07-29T02:27:27;4.90;;;4.90;;
19643;SDS011;9970;-36.854;174.870;2022-07-29T02:30:02;4.70;;;4.70;;
19643;SDS011;9970;-36.854;174.870;2022-07-29T02:32:36;4.60;;;4.60;;
19643;SDS011;9970;-36.854;174.870;2022-07-29T02:35:12;4.60;;;4.60;;
19643;SDS011;9970;-36.854;174.870;2022-07-29T02:37:46;4.50;;;4.50;;
19643;SDS011;9970;-36.854;174.870;2022-07-29T02:40:21;4.70;;;4.70;;
19643;SDS011;9970;-36.854;174.870;2022-07-29T02:42:54;4.80;;;4.80;;
19643;SDS011;9970;-36.854;174.870;2022-07-29T02:45:28;4.80;;;4.80;;
19643;SDS011;9970;-36.854;174.870;2022-07-29T02:48:07;5.23;;;5.23;;
19643;SDS011;9970;-36.854;174.870;2022-07-29T02:50:44;5.30;;;5.30;;
19643;SDS011;9970;-36.854;174.870;2022-07-29T02:53:22;5.10;;;5.10;;
19643;SDS011;9970;-36.854;174.870;2022-07-29T02:55:55;5.17;;;5.17;;
19643;SDS011;9970;-36.854;174.870;2022-07-29T02:58:33;4.90;;;4.90;;
19643;SDS011;9970;-36.854;174.870;2022-07-29T03:01:16;4.90;;;4.90;;
19643;SDS011;9970;-36.854;174.870;2022-07-29T03:03:53;4.50;;;4.50;;
19643;SDS011;9970;-36.854;174.870;2022-07-29T03:06:26;4.60;;;4.60;;
19643;SDS011;9970;-36.854;174.870;2022-07-29T03:09:01;4.40;;;4.40;;
19643;SDS011;9970;-36.854;174.870;2022-07-29T03:11:35;4.30;;;4.30;;
19643;SDS011;9970;-36.854;174.870;2022-07-29T03:14:12;4.60;;;4.60;;
19643;SDS011;9970;-36.854;174.870;2022-07-29T03:16:48;4.53;;;4.53;;
19643;SDS011;9970;-36.854;174.870;2022-07-29T03:19:21;4.30;;;4.30;;
19643;SDS011;9970;-36.854;174.870;2022-07-29T03:21:59;4.30;;;4.30;;
19643;SDS011;9970;-36.854;174.870;2022-07-29T03:24:34;4.50;;;4.50;;
19643;SDS011;9970;-36.854;174.870;2022-07-29T03:27:07;4.50;;;4.50;;
19643;SDS011;9970;-36.854;174.870;2022-07-29T03:29:40;4.20;;;4.20;;
19643;SDS011;9970;-36.854;174.870;2022-07-29T03:32:14;4.10;;;4.10;;
19643;SDS011;9970;-36.854;174.870;2022-07-29T03:34:51;4.30;;;4.30;;
19643;SDS011;9970;-36.854;174.870;2022-07-29T03:37:28;4.27;;;4.27;;
19643;SDS011;9970;-36.854;174.870;2022-07-29T03:40:05;4.30;;;4.30;;
19643;SDS011;9970;-36.854;174.870;2022-07-29T03:42:37;4.20;;;4.20;;
19643;SDS011;9970;-36.854;174.870;2022-07-29T03:45:12;4.20;;;4.20;;
19643;SDS011;9970;-36.854;174.870;2022-07-29T03:47:47;4.20;;;4.20;;
19643;SDS011;9970;-36.854;174.870;2022-07-29T03:50:28;4.20;;;4.20;;
19643;SDS011;9970;-36.854;174.870;2022-07-29T03:53:02;4.50;;;4.50;;
19643;SDS011;9970;-36.854;174.870;2022-07-29T03:55:40;4.30;;;4.30;;
19643;SDS011;9970;-36.854;174.870;2022-07-29T03:58:09;4.40;;;4.40;;
19643;SDS011;9970;-36.854;174.870;2022-07-29T04:00:43;4.17;;;4.17;;
19643;SDS011;9970;-36.854;174.870;2022-07-29T04:03:21;4.40;;;4.40;;
19643;SDS011;9970;-36.854;174.870;2022-07-29T04:05:58;4.10;;;4.10;;
19643;SDS011;9970;-36.854;174.870;2022-07-29T04:08:38;4.30;;;4.30;;
19643;SDS011;9970;-36.854;174.870;2022-07-29T04:11:11;4.33;;;4.33;;
19643;SDS011;9970;-36.854;174.870;2022-07-29T04:13:45;4.10;;;4.10;;
19643;SDS011;9970;-36.854;174.870;2022-07-29T04:16:17;4.10;;;4.10;;
19643;SDS011;9970;-36.854;174.870;2022-07-29T04:18:51;4.40;;;4.40;;
19643;SDS011;9970;-36.854;174.870;2022-07-29T04:21:24;4.40;;;4.40;;
19643;SDS011;9970;-36.854;174.870;2022-07-29T04:23:57;3.90;;;3.90;;
19643;SDS011;9970;-36.854;174.870;2022-07-29T04:26:30;3.80;;;3.80;;
19643;SDS011;9970;-36.854;174.870;2022-07-29T04:29:03;4.27;;;4.27;;
19643;SDS011;9970;-36.854;174.870;2022-07-29T04:31:36;3.90;;;3.90;;
19643;SDS011;9970;-36.854;174.870;2022-07-29T04:34:09;3.90;;;3.90;;
19643;SDS011;9970;-36.854;174.870;2022-07-29T04:36:44;3.80;;;3.80;;
19643;SDS011;9970;-36.854;174.870;2022-07-29T04:39:16;3.80;;;3.80;;
19643;SDS011;9970;-36.854;174.870;2022-07-29T04:41:50;3.50;;;3.50;;
19643;SDS011;9970;-36.854;174.870;2022-07-29T04:44:23;3.77;;;3.77;;
19643;SDS011;9970;-36.854;174.870;2022-07-29T04:46:58;3.60;;;3.60;;
19643;SDS011;9970;-36.854;174.870;2022-07-29T04:49:31;3.90;;;3.90;;
19643;SDS011;9970;-36.854;174.870;2022-07-29T04:52:04;4.00;;;4.00;;
19643;SDS011;9970;-36.854;174.870;2022-07-29T04:54:37;3.90;;;3.90;;
19643;SDS011;9970;-36.854;174.870;2022-07-29T04:57:10;3.80;;;3.80;;
19643;SDS011;9970;-36.854;174.870;2022-07-29T04:59:44;3.70;;;3.70;;
19643;SDS011;9970;-36.854;174.870;2022-07-29T05:02:17;3.70;;;3.70;;
19643;SDS011;9970;-36.854;174.870;2022-07-29T05:04:50;3.70;;;3.70;;
19643;SDS011;9970;-36.854;174.870;2022-07-29T05:07:23;3.60;;;3.60;;
19643;SDS011;9970;-36.854;174.870;2022-07-29T05:09:55;3.50;;;3.50;;
19643;SDS011;9970;-36.854;174.870;2022-07-29T05:12:28;3.40;;;3.40;;
19643;SDS011;9970;-36.854;174.870;2022-07-29T05:15:01;3.40;;;3.40;;
19643;SDS011;9970;-36.854;174.870;2022-07-29T05:17:34;3.47;;;3.47;;
19643;SDS011;9970;-36.854;174.870;2022-07-29T05:20:08;3.40;;;3.40;;
19643;SDS011;9970;-36.854;174.870;2022-07-29T05:22:41;3.50;;;3.50;;
19643;SDS011;9970;-36.854;174.870;2022-07-29T05:25:14;3.10;;;3.10;;
19643;SDS011;9970;-36.854;174.870;2022-07-29T05:27:47;3.50;;;3.50;;
19643;SDS011;9970;-36.854;174.870;2022-07-29T05:30:22;3.60;;;3.60;;
19643;SDS011;9970;-36.854;174.870;2022-07-29T05:32:55;3.13;;;3.13;;
19643;SDS011;9970;-36.854;174.870;2022-07-29T05:35:28;2.90;;;2.90;;
19643;SDS011;9970;-36.854;174.870;2022-07-29T05:38:01;3.10;;;3.10;;
19643;SDS011;9970;-36.854;174.870;2022-07-29T05:40:34;2.73;;;2.73;;
19643;SDS011;9970;-36.854;174.870;2022-07-29T05:43:11;2.73;;;2.73;;
19643;SDS011;9970;-36.854;174.870;2022-07-29T05:45:44;2.70;;;2.70;;
19643;SDS011;9970;-36.854;174.870;2022-07-29T05:48:17;2.60;;;2.60;;
19643;SDS011;9970;-36.854;174.870;2022-07-29T05:50:50;2.60;;;2.60;;
19643;SDS011;9970;-36.854;174.870;2022-07-29T05:53:23;2.53;;;2.53;;
19643;SDS011;9970;-36.854;174.870;2022-07-29T05:55:56;2.57;;;2.57;;
19643;SDS011;9970;-36.854;174.870;2022-07-29T05:58:35;2.60;;;2.60;;
19643;SDS011;9970;-36.854;174.870;2022-07-29T06:01:08;2.60;;;2.60;;
19643;SDS011;9970;-36.854;174.870;2022-07-29T06:03:41;2.40;;;2.40;;
19643;SDS011;9970;-36.854;174.870;2022-07-29T06:06:18;2.50;;;2.50;;
19643;SDS011;9970;-36.854;174.870;2022-07-29T06:08:52;2.50;;;2.50;;
19643;SDS011;9970;-36.854;174.870;2022-07-29T06:11:25;2.60;;;2.60;;
19643;SDS011;9970;-36.854;174.870;2022-07-29T06:14:01;2.60;;;2.60;;
19643;SDS011;9970;-36.854;174.870;2022-07-29T06:16:34;2.50;;;2.50;;
19643;SDS011;9970;-36.854;174.870;2022-07-29T06:19:07;2.50;;;2.50;;
19643;SDS011;9970;-36.854;174.870;2022-07-29T06:21:43;2.37;;;2.37;;
19643;SDS011;9970;-36.854;174.870;2022-07-29T06:24:17;2.37;;;2.37;;
19643;SDS011;9970;-36.854;174.870;2022-07-29T06:26:50;2.30;;;2.30;;
19643;SDS011;9970;-36.854;174.870;2022-07-29T06:29:23;2.40;;;2.40;;
19643;SDS011;9970;-36.854;174.870;2022-07-29T06:31:57;2.40;;;2.40;;
19643;SDS011;9970;-36.854;174.870;2022-07-29T06:34:30;2.30;;;2.30;;
19643;SDS011;9970;-36.854;174.870;2022-07-29T06:37:06;2.30;;;2.30;;
19643;SDS011;9970;-36.854;174.870;2022-07-29T06:39:43;2.30;;;2.30;;
19643;SDS011;9970;-36.854;174.870;2022-07-29T06:42:17;2.30;;;2.30;;
19643;SDS011;9970;-36.854;174.870;2022-07-29T06:44:50;2.20;;;2.20;;
19643;SDS011;9970;-36.854;174.870;2022-07-29T06:47:23;2.30;;;2.30;;
19643;SDS011;9970;-36.854;174.870;2022-07-29T06:49:56;2.20;;;2.20;;
19643;SDS011;9970;-36.854;174.870;2022-07-29T06:52:30;2.20;;;2.20;;
19643;SDS011;9970;-36.854;174.870;2022-07-29T06:55:03;2.10;;;2.10;;
19643;SDS011;9970;-36.854;174.870;2022-07-29T06:57:38;2.40;;;2.40;;
19643;SDS011;9970;-36.854;174.870;2022-07-29T07:00:11;2.30;;;2.30;;
19643;SDS011;9970;-36.854;174.870;2022-07-29T07:02:44;2.10;;;2.10;;
19643;SDS011;9970;-36.854;174.870;2022-07-29T07:05:18;2.20;;;2.20;;
19643;SDS011;9970;-36.854;174.870;2022-07-29T07:07:51;2.00;;;2.00;;
19643;SDS011;9970;-36.854;174.870;2022-07-29T07:10:24;2.10;;;2.10;;
19643;SDS011;9970;-36.854;174.870;2022-07-29T07:12:57;2.20;;;2.20;;
19643;SDS011;9970;-36.854;174.870;2022-07-29T07:15:35;2.10;;;2.10;;
19643;SDS011;9970;-36.854;174.870;2022-07-29T07:18:08;2.20;;;2.20;;
19643;SDS011;9970;-36.854;174.870;2022-07-29T07:20:41;2.20;;;2.20;;
19643;SDS011;9970;-36.854;174.870;2022-07-29T07:23:15;2.20;;;2.20;;
19643;SDS011;9970;-36.854;174.870;2022-07-29T07:25:47;2.20;;;2.20;;
19643;SDS011;9970;-36.854;174.870;2022-07-29T07:28:20;2.10;;;2.10;;
19643;SDS011;9970;-36.854;174.870;2022-07-29T07:30:54;2.10;;;2.10;;
19643;SDS011;9970;-36.854;174.870;2022-07-29T07:33:27;2.00;;;2.00;;
19643;SDS011;9970;-36.854;174.870;2022-07-29T07:35:59;2.10;;;2.10;;
19643;SDS011;9970;-36.854;174.870;2022-07-29T07:38:37;2.10;;;2.10;;
19643;SDS011;9970;-36.854;174.870;2022-07-29T07:41:10;1.90;;;1.90;;
19643;SDS011;9970;-36.854;174.870;2022-07-29T07:43:43;2.10;;;2.10;;
19643;SDS011;9970;-36.854;174.870;2022-07-29T07:46:16;2.00;;;2.00;;
19643;SDS011;9970;-36.854;174.870;2022-07-29T07:48:49;2.10;;;2.10;;
19643;SDS011;9970;-36.854;174.870;2022-07-29T07:51:26;2.00;;;2.00;;
19643;SDS011;9970;-36.854;174.870;2022-07-29T07:53:59;1.80;;;1.80;;
19643;SDS011;9970;-36.854;174.870;2022-07-29T07:56:32;1.90;;;1.90;;
19643;SDS011;9970;-36.854;174.870;2022-07-29T07:59:05;1.70;;;1.70;;
19643;SDS011;9970;-36.854;174.870;2022-07-29T08:01:38;1.80;;;1.80;;
19643;SDS011;9970;-36.854;174.870;2022-07-29T08:04:12;1.70;;;1.70;;
19643;SDS011;9970;-36.854;174.870;2022-07-29T08:06:46;1.80;;;1.80;;
19643;SDS011;9970;-36.854;174.870;2022-07-29T08:09:20;1.90;;;1.90;;
19643;SDS011;9970;-36.854;174.870;2022-07-29T08:11:54;1.80;;;1.80;;
19643;SDS011;9970;-36.854;174.870;2022-07-29T08:14:33;1.90;;;1.90;;
19643;SDS011;9970;-36.854;174.870;2022-07-29T08:17:06;1.90;;;1.90;;
19643;SDS011;9970;-36.854;174.870;2022-07-29T08:19:39;1.90;;;1.90;;
19643;SDS011;9970;-36.854;174.870;2022-07-29T08:22:14;1.90;;;1.90;;
19643;SDS011;9970;-36.854;174.870;2022-07-29T08:24:47;1.90;;;1.90;;
19643;SDS011;9970;-36.854;174.870;2022-07-29T08:27:23;1.93;;;1.93;;
19643;SDS011;9970;-36.854;174.870;2022-07-29T08:29:58;1.83;;;1.83;;
19643;SDS011;9970;-36.854;174.870;2022-07-29T08:32:32;1.80;;;1.80;;
19643;SDS011;9970;-36.854;174.870;2022-07-29T08:35:07;1.90;;;1.90;;
19643;SDS011;9970;-36.854;174.870;2022-07-29T08:37:40;1.80;;;1.80;;
19643;SDS011;9970;-36.854;174.870;2022-07-29T08:40:13;1.80;;;1.80;;
19643;SDS011;9970;-36.854;174.870;2022-07-29T08:42:47;1.93;;;1.93;;
19643;SDS011;9970;-36.854;174.870;2022-07-29T08:45:20;1.70;;;1.70;;
19643;SDS011;9970;-36.854;174.870;2022-07-29T08:47:54;1.70;;;1.70;;
19643;SDS011;9970;-36.854;174.870;2022-07-29T08:50:33;1.80;;;1.80;;
19643;SDS011;9970;-36.854;174.870;2022-07-29T08:53:07;1.80;;;1.80;;
19643;SDS011;9970;-36.854;174.870;2022-07-29T08:55:44;1.80;;;1.80;;
19643;SDS011;9970;-36.854;174.870;2022-07-29T08:58:19;1.80;;;1.80;;
19643;SDS011;9970;-36.854;174.870;2022-07-29T09:00:53;1.87;;;1.87;;
19643;SDS011;9970;-36.854;174.870;2022-07-29T09:03:29;1.80;;;1.80;;
19643;SDS011;9970;-36.854;174.870;2022-07-29T09:06:04;1.80;;;1.80;;
19643;SDS011;9970;-36.854;174.870;2022-07-29T09:08:37;1.80;;;1.80;;
19643;SDS011;9970;-36.854;174.870;2022-07-29T09:11:10;1.70;;;1.70;;
19643;SDS011;9970;-36.854;174.870;2022-07-29T09:13:43;1.80;;;1.80;;
19643;SDS011;9970;-36.854;174.870;2022-07-29T09:16:17;1.77;;;1.77;;
19643;SDS011;9970;-36.854;174.870;2022-07-29T09:18:51;1.90;;;1.90;;
19643;SDS011;9970;-36.854;174.870;2022-07-29T09:21:24;1.80;;;1.80;;
19643;SDS011;9970;-36.854;174.870;2022-07-29T09:24:19;1.90;;;1.90;;
19643;SDS011;9970;-36.854;174.870;2022-07-29T09:26:52;1.90;;;1.90;;
19643;SDS011;9970;-36.854;174.870;2022-07-29T09:29:25;1.90;;;1.90;;
19643;SDS011;9970;-36.854;174.870;2022-07-29T09:31:59;1.80;;;1.80;;
19643;SDS011;9970;-36.854;174.870;2022-07-29T09:34:34;1.80;;;1.80;;
19643;SDS011;9970;-36.854;174.870;2022-07-29T09:37:07;1.80;;;1.80;;
19643;SDS011;9970;-36.854;174.870;2022-07-29T09:39:41;1.80;;;1.80;;
19643;SDS011;9970;-36.854;174.870;2022-07-29T09:42:16;1.70;;;1.70;;
19643;SDS011;9970;-36.854;174.870;2022-07-29T09:44:51;1.80;;;1.80;;
19643;SDS011;9970;-36.854;174.870;2022-07-29T09:47:40;1.70;;;1.70;;
19643;SDS011;9970;-36.854;174.870;2022-07-29T09:50:19;1.70;;;1.70;;
19643;SDS011;9970;-36.854;174.870;2022-07-29T09:52:56;1.60;;;1.60;;
19643;SDS011;9970;-36.854;174.870;2022-07-29T09:55:29;1.90;;;1.90;;
19643;SDS011;9970;-36.854;174.870;2022-07-29T09:58:17;1.70;;;1.70;;
19643;SDS011;9970;-36.854;174.870;2022-07-29T10:00:51;1.70;;;1.70;;
19643;SDS011;9970;-36.854;174.870;2022-07-29T10:03:25;1.80;;;1.80;;
19643;SDS011;9970;-36.854;174.870;2022-07-29T10:06:08;1.70;;;1.70;;
19643;SDS011;9970;-36.854;174.870;2022-07-29T10:08:42;1.70;;;1.70;;
19643;SDS011;9970;-36.854;174.870;2022-07-29T10:11:16;1.60;;;1.60;;
19643;SDS011;9970;-36.854;174.870;2022-07-29T10:13:52;1.70;;;1.70;;
19643;SDS011;9970;-36.854;174.870;2022-07-29T10:16:25;1.90;;;1.90;;
19643;SDS011;9970;-36.854;174.870;2022-07-29T10:19:00;1.60;;;1.60;;
19643;SDS011;9970;-36.854;174.870;2022-07-29T10:21:33;1.70;;;1.70;;
19643;SDS011;9970;-36.854;174.870;2022-07-29T10:24:07;1.70;;;1.70;;
19643;SDS011;9970;-36.854;174.870;2022-07-29T10:26:41;1.70;;;1.70;;
19643;SDS011;9970;-36.854;174.870;2022-07-29T10:29:15;1.60;;;1.60;;
19643;SDS011;9970;-36.854;174.870;2022-07-29T10:40:24;1.90;;;1.90;;
19643;SDS011;9970;-36.854;174.870;2022-07-29T10:43:32;1.80;;;1.80;;
19643;SDS011;9970;-36.854;174.870;2022-07-29T10:46:08;1.70;;;1.70;;
19643;SDS011;9970;-36.854;174.870;2022-07-29T10:51:53;1.67;;;1.67;;
19643;SDS011;9970;-36.854;174.870;2022-07-29T10:59:51;1.70;;;1.70;;
19643;SDS011;9970;-36.854;174.870;2022-07-29T11:02:41;1.60;;;1.60;;
19643;SDS011;9970;-36.854;174.870;2022-07-29T11:05:20;1.70;;;1.70;;
19643;SDS011;9970;-36.854;174.870;2022-07-29T11:10:50;1.70;;;1.70;;
19643;SDS011;9970;-36.854;174.870;2022-07-29T11:16:21;1.80;;;1.80;;
19643;SDS011;9970;-36.854;174.870;2022-07-29T11:21:48;1.70;;;1.70;;
19643;SDS011;9970;-36.854;174.870;2022-07-29T11:24:24;1.70;;;1.70;;
19643;SDS011;9970;-36.854;174.870;2022-07-29T11:27:11;1.70;;;1.70;;
19643;SDS011;9970;-36.854;174.870;2022-07-29T11:29:50;1.90;;;1.90;;
19643;SDS011;9970;-36.854;174.870;2022-07-29T11:32:28;1.70;;;1.70;;
19643;SDS011;9970;-36.854;174.870;2022-07-29T11:35:13;1.80;;;1.80;;
19643;SDS011;9970;-36.854;174.870;2022-07-29T11:37:41;1.70;;;1.70;;
19643;SDS011;9970;-36.854;174.870;2022-07-29T11:40:16;1.80;;;1.80;;
19643;SDS011;9970;-36.854;174.870;2022-07-29T11:42:49;1.90;;;1.90;;
19643;SDS011;9970;-36.854;174.870;2022-07-29T11:45:22;1.80;;;1.80;;
19643;SDS011;9970;-36.854;174.870;2022-07-29T11:47:58;1.70;;;1.70;;
19643;SDS011;9970;-36.854;174.870;2022-07-29T11:50:37;1.70;;;1.70;;
19643;SDS011;9970;-36.854;174.870;2022-07-29T11:53:11;1.70;;;1.70;;
19643;SDS011;9970;-36.854;174.870;2022-07-29T11:55:44;1.70;;;1.70;;
19643;SDS011;9970;-36.854;174.870;2022-07-29T11:58:22;1.80;;;1.80;;
19643;SDS011;9970;-36.854;174.870;2022-07-29T12:00:55;1.70;;;1.70;;
19643;SDS011;9970;-36.854;174.870;2022-07-29T12:03:31;1.60;;;1.60;;
19643;SDS011;9970;-36.854;174.870;2022-07-29T12:06:14;1.70;;;1.70;;
19643;SDS011;9970;-36.854;174.870;2022-07-29T12:08:46;1.57;;;1.57;;
19643;SDS011;9970;-36.854;174.870;2022-07-29T12:11:19;1.60;;;1.60;;
19643;SDS011;9970;-36.854;174.870;2022-07-29T12:13:52;1.60;;;1.60;;
19643;SDS011;9970;-36.854;174.870;2022-07-29T12:16:34;1.67;;;1.67;;
19643;SDS011;9970;-36.854;174.870;2022-07-29T12:19:08;1.60;;;1.60;;
19643;SDS011;9970;-36.854;174.870;2022-07-29T12:21:46;1.60;;;1.60;;
19643;SDS011;9970;-36.854;174.870;2022-07-29T12:24:25;1.60;;;1.60;;
19643;SDS011;9970;-36.854;174.870;2022-07-29T12:27:00;1.50;;;1.50;;
19643;SDS011;9970;-36.854;174.870;2022-07-29T12:29:33;1.60;;;1.60;;
19643;SDS011;9970;-36.854;174.870;2022-07-29T12:32:08;1.60;;;1.60;;
19643;SDS011;9970;-36.854;174.870;2022-07-29T12:34:42;1.53;;;1.53;;
19643;SDS011;9970;-36.854;174.870;2022-07-29T12:37:19;1.50;;;1.50;;
19643;SDS011;9970;-36.854;174.870;2022-07-29T12:39:58;1.60;;;1.60;;
19643;SDS011;9970;-36.854;174.870;2022-07-29T12:42:31;1.50;;;1.50;;
19643;SDS011;9970;-36.854;174.870;2022-07-29T12:45:05;1.60;;;1.60;;
19643;SDS011;9970;-36.854;174.870;2022-07-29T12:47:53;1.70;;;1.70;;
19643;SDS011;9970;-36.854;174.870;2022-07-29T12:50:27;1.60;;;1.60;;
19643;SDS011;9970;-36.854;174.870;2022-07-29T12:53:13;1.60;;;1.60;;
19643;SDS011;9970;-36.854;174.870;2022-07-29T12:55:47;1.63;;;1.63;;
19643;SDS011;9970;-36.854;174.870;2022-07-29T12:58:32;1.60;;;1.60;;
19643;SDS011;9970;-36.854;174.870;2022-07-29T13:01:14;1.60;;;1.60;;
19643;SDS011;9970;-36.854;174.870;2022-07-29T13:03:55;1.70;;;1.70;;
19643;SDS011;9970;-36.854;174.870;2022-07-29T13:06:34;1.60;;;1.60;;
19643;SDS011;9970;-36.854;174.870;2022-07-29T13:09:12;1.60;;;1.60;;
19643;SDS011;9970;-36.854;174.870;2022-07-29T13:11:47;1.70;;;1.70;;
19643;SDS011;9970;-36.854;174.870;2022-07-29T13:14:32;1.67;;;1.67;;
19643;SDS011;9970;-36.854;174.870;2022-07-29T13:17:07;1.50;;;1.50;;
19643;SDS011;9970;-36.854;174.870;2022-07-29T13:22:40;1.70;;;1.70;;
19643;SDS011;9970;-36.854;174.870;2022-07-29T13:25:24;1.70;;;1.70;;
19643;SDS011;9970;-36.854;174.870;2022-07-29T13:28:01;1.80;;;1.80;;
19643;SDS011;9970;-36.854;174.870;2022-07-29T13:30:34;1.70;;;1.70;;
19643;SDS011;9970;-36.854;174.870;2022-07-29T13:33:08;1.60;;;1.60;;
19643;SDS011;9970;-36.854;174.870;2022-07-29T13:35:41;1.60;;;1.60;;
19643;SDS011;9970;-36.854;174.870;2022-07-29T13:38:14;1.60;;;1.60;;
19643;SDS011;9970;-36.854;174.870;2022-07-29T13:40:47;1.60;;;1.60;;
19643;SDS011;9970;-36.854;174.870;2022-07-29T13:43:20;1.60;;;1.60;;
19643;SDS011;9970;-36.854;174.870;2022-07-29T13:45:53;1.50;;;1.50;;
19643;SDS011;9970;-36.854;174.870;2022-07-29T13:48:26;1.60;;;1.60;;
19643;SDS011;9970;-36.854;174.870;2022-07-29T13:50:59;1.70;;;1.70;;
19643;SDS011;9970;-36.854;174.870;2022-07-29T13:53:32;1.60;;;1.60;;
19643;SDS011;9970;-36.854;174.870;2022-07-29T13:56:08;1.50;;;1.50;;
19643;SDS011;9970;-36.854;174.870;2022-07-29T13:58:41;1.60;;;1.60;;
19643;SDS011;9970;-36.854;174.870;2022-07-29T14:01:14;1.50;;;1.50;;
19643;SDS011;9970;-36.854;174.870;2022-07-29T14:03:47;1.50;;;1.50;;
19643;SDS011;9970;-36.854;174.870;2022-07-29T14:06:20;1.53;;;1.53;;
19643;SDS011;9970;-36.854;174.870;2022-07-29T14:08:55;1.60;;;1.60;;
19643;SDS011;9970;-36.854;174.870;2022-07-29T14:11:28;1.50;;;1.50;;
19643;SDS011;9970;-36.854;174.870;2022-07-29T14:14:01;1.50;;;1.50;;
19643;SDS011;9970;-36.854;174.870;2022-07-29T14:16:33;1.30;;;1.30;;
19643;SDS011;9970;-36.854;174.870;2022-07-29T14:19:07;1.60;;;1.60;;
19643;SDS011;9970;-36.854;174.870;2022-07-29T14:21:40;1.60;;;1.60;;
19643;SDS011;9970;-36.854;174.870;2022-07-29T14:24:14;1.40;;;1.40;;
19643;SDS011;9970;-36.854;174.870;2022-07-29T14:26:48;1.57;;;1.57;;
19643;SDS011;9970;-36.854;174.870;2022-07-29T14:29:21;1.40;;;1.40;;
19643;SDS011;9970;-36.854;174.870;2022-07-29T14:31:55;1.40;;;1.40;;
19643;SDS011;9970;-36.854;174.870;2022-07-29T14:34:28;1.40;;;1.40;;
19643;SDS011;9970;-36.854;174.870;2022-07-29T14:37:02;1.37;;;1.37;;
19643;SDS011;9970;-36.854;174.870;2022-07-29T14:39:35;1.50;;;1.50;;
19643;SDS011;9970;-36.854;174.870;2022-07-29T14:42:10;1.40;;;1.40;;
19643;SDS011;9970;-36.854;174.870;2022-07-29T14:44:43;1.40;;;1.40;;
19643;SDS011;9970;-36.854;174.870;2022-07-29T14:47:17;1.50;;;1.50;;
19643;SDS011;9970;-36.854;174.870;2022-07-29T14:49:51;1.40;;;1.40;;
19643;SDS011;9970;-36.854;174.870;2022-07-29T14:52:24;1.40;;;1.40;;
19643;SDS011;9970;-36.854;174.870;2022-07-29T14:54:56;1.40;;;1.40;;
19643;SDS011;9970;-36.854;174.870;2022-07-29T14:57:29;1.40;;;1.40;;
19643;SDS011;9970;-36.854;174.870;2022-07-29T15:00:03;1.60;;;1.60;;
19643;SDS011;9970;-36.854;174.870;2022-07-29T15:02:36;1.40;;;1.40;;
19643;SDS011;9970;-36.854;174.870;2022-07-29T15:05:10;1.40;;;1.40;;
19643;SDS011;9970;-36.854;174.870;2022-07-29T15:07:47;1.40;;;1.40;;
19643;SDS011;9970;-36.854;174.870;2022-07-29T15:10:20;1.40;;;1.40;;
19643;SDS011;9970;-36.854;174.870;2022-07-29T15:12:53;1.40;;;1.40;;
19643;SDS011;9970;-36.854;174.870;2022-07-29T15:15:28;1.40;;;1.40;;
19643;SDS011;9970;-36.854;174.870;2022-07-29T15:18:01;1.40;;;1.40;;
19643;SDS011;9970;-36.854;174.870;2022-07-29T15:20:42;1.30;;;1.30;;
19643;SDS011;9970;-36.854;174.870;2022-07-29T15:23:15;1.33;;;1.33;;
19643;SDS011;9970;-36.854;174.870;2022-07-29T15:25:48;1.40;;;1.40;;
19643;SDS011;9970;-36.854;174.870;2022-07-29T15:28:21;1.30;;;1.30;;
19643;SDS011;9970;-36.854;174.870;2022-07-29T15:30:54;1.40;;;1.40;;
19643;SDS011;9970;-36.854;174.870;2022-07-29T15:33:27;1.20;;;1.20;;
19643;SDS011;9970;-36.854;174.870;2022-07-29T15:36:00;1.40;;;1.40;;
19643;SDS011;9970;-36.854;174.870;2022-07-29T15:38:34;1.40;;;1.40;;
19643;SDS011;9970;-36.854;174.870;2022-07-29T15:41:08;1.40;;;1.40;;
19643;SDS011;9970;-36.854;174.870;2022-07-29T15:43:45;1.30;;;1.30;;
19643;SDS011;9970;-36.854;174.870;2022-07-29T15:46:19;1.30;;;1.30;;
19643;SDS011;9970;-36.854;174.870;2022-07-29T15:49:09;1.37;;;1.37;;
19643;SDS011;9970;-36.854;174.870;2022-07-29T15:51:42;1.40;;;1.40;;